Time;durP1;ratioP1;P1;durP2;ratioP2;P2;SDS_P1;SDS_P2;PMS_P1;PMS_P2;Temp;Humidity;BMP_temperature;BMP_pressure;BME280_temperature;BME280_humidity;BME280_pressure;Samples;Min_cycle;Max_cycle;Signal;HPM_P1;HPM_P2
2021/01/31 00:01:40;;;;;;;46.35;32.03;;;10.20;99.90;;;;;;5063249;28;20021;-78
2021/01/31 00:04:06;;;;;;;36.83;28.58;;;10.20;99.90;;;;;;5075169;28;20036;-77
2021/01/31 00:06:32;;;;;;;39.92;31.65;;;10.20;99.90;;;;;;5075322;28;20040;-78
2021/01/31 00:08:59;;;;;;;30.88;27.55;;;10.30;99.90;;;;;;5075414;28;20025;-76
2021/01/31 00:11:26;;;;;;;35.97;28.88;;;10.30;99.90;;;;;;5075486;28;20024;-77
2021/01/31 00:13:51;;;;;;;39.83;28.88;;;10.30;99.90;;;;;;5073013;28;20031;-77
2021/01/31 00:16:17;;;;;;;35.90;28.55;;;10.20;99.90;;;;;;5074447;28;20124;-77
2021/01/31 00:18:43;;;;;;;32.58;28.33;;;10.30;99.90;;;;;;5073619;28;20047;-78
2021/01/31 00:21:09;;;;;;;30.75;23.33;;;10.30;99.90;;;;;;5075062;28;20039;-77
2021/01/31 00:23:34;;;;;;;30.05;25.73;;;10.40;99.90;;;;;;5074939;28;20049;-77
2021/01/31 00:26:00;;;;;;;27.65;24.70;;;10.40;99.90;;;;;;5067046;28;20061;-76
2021/01/31 00:28:27;;;;;;;33.30;26.10;;;10.40;99.90;;;;;;5059306;28;20024;-76
2021/01/31 00:30:53;;;;;;;28.40;22.40;;;10.40;99.90;;;;;;5074963;28;20139;-78
2021/01/31 00:33:24;;;;;;;33.83;19.73;;;10.30;99.90;;;;;;5074656;28;20032;-76
2021/01/31 00:35:52;;;;;;;31.10;21.63;;;10.40;99.90;;;;;;5069735;28;20562;-76
2021/01/31 00:38:20;;;;;;;33.78;23.95;;;10.30;99.90;;;;;;5063943;28;20582;-77
2021/01/31 00:40:55;;;;;;;25.40;21.15;;;10.30;99.90;;;;;;5073608;28;20024;-77
2021/01/31 00:43:22;;;;;;;31.88;20.42;;;10.30;99.90;;;;;;5071545;28;20036;-76
2021/01/31 00:45:49;;;;;;;32.30;20.88;;;10.30;99.90;;;;;;5068133;28;20111;-77
2021/01/31 00:48:16;;;;;;;19.50;15.38;;;10.20;99.90;;;;;;5075969;28;20031;-76
2021/01/31 00:50:45;;;;;;;17.70;15.75;;;10.20;99.90;;;;;;5068935;28;20403;-76
2021/01/31 00:53:11;;;;;;;21.02;13.43;;;10.20;99.90;;;;;;5071808;28;20032;-79
2021/01/31 00:55:37;;;;;;;25.65;15.40;;;10.30;99.90;;;;;;5075825;28;20032;-76
2021/01/31 00:58:03;;;;;;;24.90;13.82;;;10.20;99.90;;;;;;5068766;28;20032;-76
2021/01/31 01:00:38;;;;;;;16.90;11.27;;;10.20;99.90;;;;;;5076294;28;20082;-77
2021/01/31 01:03:04;;;;;;;18.80;11.20;;;10.30;99.90;;;;;;5067766;28;20108;-76
2021/01/31 01:05:31;;;;;;;17.55;11.02;;;10.30;99.90;;;;;;5075938;28;20059;-77
2021/01/31 01:07:59;;;;;;;14.63;10.07;;;10.30;99.90;;;;;;5059453;28;20021;-76
2021/01/31 01:10:33;;;;;;;19.30;11.40;;;10.30;99.90;;;;;;5059536;28;20036;-76
2021/01/31 01:13:01;;;;;;;18.10;11.38;;;10.30;99.90;;;;;;5058454;28;20090;-77
2021/01/31 01:15:28;;;;;;;15.77;11.50;;;10.30;99.90;;;;;;5060911;28;20546;-77
2021/01/31 01:17:55;;;;;;;17.92;10.43;;;10.30;99.90;;;;;;5061217;28;20032;-76
2021/01/31 01:20:21;;;;;;;12.75;10.93;;;10.30;99.90;;;;;;5063867;28;20131;-81
2021/01/31 01:22:48;;;;;;;14.07;10.15;;;10.30;99.90;;;;;;5072019;28;20052;-77
2021/01/31 01:25:16;;;;;;;17.45;10.85;;;10.30;99.90;;;;;;5064488;28;20076;-77
2021/01/31 01:27:42;;;;;;;15.77;11.20;;;10.30;99.90;;;;;;5080274;28;20427;-77
2021/01/31 01:30:11;;;;;;;20.27;11.13;;;10.30;99.90;;;;;;5075605;28;20092;-78
2021/01/31 01:32:37;;;;;;;15.05;9.98;;;10.30;99.90;;;;;;5073206;28;20044;-75
2021/01/31 01:35:06;;;;;;;15.88;11.13;;;10.20;99.90;;;;;;5082045;28;20074;-77
2021/01/31 01:37:31;;;;;;;12.95;9.63;;;10.20;99.90;;;;;;5071430;28;20021;-77
2021/01/31 01:39:57;;;;;;;12.23;9.02;;;10.20;99.90;;;;;;5072227;28;20112;-78
2021/01/31 01:42:23;;;;;;;12.27;7.82;;;10.20;99.90;;;;;;5076203;28;20029;-76
2021/01/31 01:44:49;;;;;;;10.35;9.07;;;10.30;99.90;;;;;;5078531;28;20595;-78
2021/01/31 01:47:19;;;;;;;13.50;8.00;;;10.30;99.90;;;;;;5077300;28;20091;-78
2021/01/31 01:49:47;;;;;;;11.98;7.60;;;10.30;99.90;;;;;;5079730;28;20056;-78
2021/01/31 01:52:33;;;;;;;9.43;5.80;;;10.30;99.90;;;;;;5081541;28;20044;-81
2021/01/31 01:55:08;;;;;;;13.15;7.57;;;10.20;99.90;;;;;;5086510;28;20021;-79
2021/01/31 01:57:41;;;;;;;11.85;6.90;;;10.20;99.90;;;;;;5084559;28;20023;-77
2021/01/31 02:00:08;;;;;;;12.70;4.97;;;10.30;99.90;;;;;;5075198;28;20012;-78
2021/01/31 02:02:39;;;;;;;7.20;5.55;;;10.30;99.90;;;;;;5082173;28;20017;-77
2021/01/31 02:05:09;;;;;;;12.13;5.65;;;10.40;99.90;;;;;;5089969;28;20017;-78
2021/01/31 02:07:36;;;;;;;7.85;5.57;;;10.30;99.90;;;;;;5084956;28;20001;-78
2021/01/31 02:10:04;;;;;;;11.38;4.78;;;10.30;99.90;;;;;;5071324;28;20437;-78
2021/01/31 02:12:30;;;;;;;6.72;4.90;;;10.20;99.90;;;;;;5069057;28;20049;-78
2021/01/31 02:15:00;;;;;;;8.30;3.92;;;10.20;99.90;;;;;;5082406;28;20044;-78
2021/01/31 02:17:34;;;;;;;6.78;3.97;;;10.20;99.90;;;;;;5081926;28;20016;-80
2021/01/31 02:20:12;;;;;;;4.18;3.40;;;10.20;99.90;;;;;;5095462;28;20037;-78
2021/01/31 02:23:12;;;;;;;8.00;4.00;;;10.10;99.90;;;;;;5081880;28;20087;-77
2021/01/31 02:26:07;;;;;;;6.75;3.30;;;10.10;99.90;;;;;;5071274;28;20081;-78
2021/01/31 02:28:35;;;;;;;7.88;3.17;;;10.20;99.90;;;;;;5076279;28;20009;-79
2021/01/31 02:31:19;;;;;;;4.30;2.47;;;10.20;99.90;;;;;;5078643;28;20905;-78
2021/01/31 02:33:48;;;;;;;5.85;2.67;;;10.40;99.90;;;;;;5077950;28;20036;-77
2021/01/31 02:36:44;;;;;;;5.78;3.40;;;10.40;99.90;;;;;;5079591;28;20025;-77
2021/01/31 02:39:25;;;;;;;2.25;1.65;;;10.40;99.90;;;;;;5083407;28;20021;-78
2021/01/31 02:41:53;;;;;;;3.85;2.53;;;10.40;99.90;;;;;;5074971;28;20090;-78
2021/01/31 02:44:23;;;;;;;4.70;2.28;;;10.50;99.90;;;;;;5071519;28;20033;-77
2021/01/31 02:46:56;;;;;;;4.25;1.80;;;10.60;99.90;;;;;;5070948;28;20083;-77
2021/01/31 02:49:42;;;;;;;3.22;2.00;;;10.60;99.90;;;;;;5077199;28;20012;-78
2021/01/31 02:52:18;;;;;;;3.20;1.80;;;10.60;99.90;;;;;;5077978;28;20016;-76
2021/01/31 02:55:12;;;;;;;3.70;2.17;;;10.60;99.90;;;;;;5071442;28;20104;-77
2021/01/31 02:58:03;;;;;;;4.45;2.53;;;10.60;99.90;;;;;;5071515;28;20033;-77
2021/01/31 03:00:52;;;;;;;5.00;2.08;;;10.60;99.90;;;;;;5073006;28;20090;-77
2021/01/31 03:03:24;;;;;;;2.35;2.05;;;10.60;99.90;;;;;;5068192;28;20028;-77
2021/01/31 03:05:53;;;;;;;2.85;1.92;;;10.60;99.90;;;;;;5071310;28;20067;-77
2021/01/31 03:08:47;;;;;;;1.42;1.33;;;10.60;99.90;;;;;;5068523;28;20025;-79
2021/01/31 03:11:19;;;;;;;2.10;1.38;;;10.60;99.90;;;;;;5072997;28;20059;-77
2021/01/31 03:13:59;;;;;;;2.10;1.35;;;10.60;99.90;;;;;;5081210;28;20371;-77
2021/01/31 03:16:38;;;;;;;4.60;1.80;;;10.60;99.90;;;;;;5073383;28;20055;-77
2021/01/31 03:19:13;;;;;;;3.97;2.63;;;10.70;99.90;;;;;;5082748;28;20043;-80
2021/01/31 03:21:42;;;;;;;1.45;1.35;;;10.60;99.90;;;;;;5083428;28;20096;-77
2021/01/31 03:24:17;;;;;;;2.35;1.65;;;10.60;99.90;;;;;;5080181;28;20101;-78
2021/01/31 03:26:56;;;;;;;2.03;1.30;;;10.80;99.90;;;;;;5084544;28;20106;-78
2021/01/31 03:29:22;;;;;;;1.80;1.67;;;10.90;99.90;;;;;;5077874;28;20031;-78
2021/01/31 03:32:21;;;;;;;2.10;1.50;;;10.90;99.90;;;;;;5077500;28;20475;-78
2021/01/31 03:35:10;;;;;;;4.43;1.73;;;10.80;99.90;;;;;;5077885;28;20029;-79
2021/01/31 03:37:41;;;;;;;2.40;2.08;;;10.60;99.90;;;;;;5086248;28;20017;-78
2021/01/31 03:40:08;;;;;;;1.88;1.65;;;10.60;99.90;;;;;;5082170;28;20075;-78
2021/01/31 03:42:35;;;;;;;8.35;3.22;;;10.50;99.90;;;;;;5080838;28;20020;-77
2021/01/31 03:45:06;;;;;;;10.45;2.63;;;10.50;99.90;;;;;;5078773;28;20304;-78
2021/01/31 03:47:47;;;;;;;1.98;1.83;;;10.50;99.90;;;;;;5085155;28;20108;-77
2021/01/31 03:50:13;;;;;;;3.00;2.67;;;10.70;99.90;;;;;;5080132;28;20031;-78
2021/01/31 03:52:40;;;;;;;4.88;2.20;;;10.70;99.90;;;;;;5083755;28;20053;-77
2021/01/31 03:55:06;;;;;;;3.80;2.05;;;10.60;99.90;;;;;;5082674;28;20032;-77
2021/01/31 03:57:34;;;;;;;6.93;2.25;;;10.60;99.90;;;;;;5092789;28;20021;-77
2021/01/31 04:00:16;;;;;;;5.90;2.80;;;10.50;99.90;;;;;;5083650;28;20029;-78
2021/01/31 04:03:00;;;;;;;5.45;2.53;;;10.60;99.90;;;;;;5081495;28;20024;-77
2021/01/31 04:05:28;;;;;;;4.13;2.63;;;10.70;99.90;;;;;;5091711;28;20021;-77
2021/01/31 04:07:56;;;;;;;8.55;2.00;;;10.60;99.90;;;;;;5082871;28;20024;-79
2021/01/31 04:10:23;;;;;;;2.55;2.22;;;10.60;99.90;;;;;;5081864;28;20013;-77
2021/01/31 04:12:56;;;;;;;2.15;1.95;;;10.60;99.90;;;;;;5078814;28;20028;-78
2021/01/31 04:15:25;;;;;;;2.38;2.00;;;10.70;99.90;;;;;;5086311;28;20084;-78
2021/01/31 04:17:51;;;;;;;4.70;2.13;;;10.60;99.90;;;;;;5083336;28;20029;-77
2021/01/31 04:20:17;;;;;;;4.18;2.03;;;10.60;99.90;;;;;;5082770;28;20021;-77
2021/01/31 04:22:44;;;;;;;3.00;2.10;;;10.60;99.90;;;;;;5073426;28;20044;-76
2021/01/31 04:25:10;;;;;;;4.55;2.22;;;10.50;99.90;;;;;;5078207;28;20021;-78
2021/01/31 04:27:36;;;;;;;5.28;3.00;;;10.50;99.90;;;;;;5080458;28;20029;-78
2021/01/31 04:30:05;;;;;;;2.60;2.08;;;10.50;99.90;;;;;;5079379;28;20036;-78
2021/01/31 04:32:31;;;;;;;4.88;2.55;;;10.50;99.90;;;;;;5086418;28;20020;-78
2021/01/31 04:34:57;;;;;;;4.35;2.13;;;10.50;99.90;;;;;;5085670;28;20107;-77
2021/01/31 04:37:23;;;;;;;3.85;1.95;;;10.60;99.90;;;;;;5083198;28;20084;-78
2021/01/31 04:39:50;;;;;;;3.13;1.63;;;10.70;99.90;;;;;;5077654;28;20119;-77
2021/01/31 04:42:18;;;;;;;1.90;1.70;;;10.80;99.90;;;;;;5075427;28;20101;-77
2021/01/31 04:44:44;;;;;;;2.08;1.73;;;10.90;99.90;;;;;;5080439;28;20028;-77
2021/01/31 04:47:35;;;;;;;4.45;1.73;;;10.80;99.90;;;;;;5078043;28;20032;-80
2021/01/31 04:50:31;;;;;;;5.82;1.55;;;10.80;99.90;;;;;;5080044;28;20021;-77
2021/01/31 04:53:23;;;;;;;7.25;1.58;;;10.70;99.90;;;;;;5081328;28;20064;-77
2021/01/31 04:56:28;;;;;;;1.80;0.90;;;10.80;99.90;;;;;;5080718;28;20406;-77
2021/01/31 04:59:03;;;;;;;1.25;0.90;;;10.70;99.90;;;;;;5072536;28;20486;-77
2021/01/31 05:01:31;;;;;;;1.90;0.88;;;10.50;99.90;;;;;;5069756;28;20025;-78
2021/01/31 05:04:06;;;;;;;0.88;0.88;;;10.50;99.90;;;;;;5080628;28;20028;-77
2021/01/31 05:06:42;;;;;;;0.88;0.88;;;10.50;99.90;;;;;;5072982;28;20551;-77
2021/01/31 05:09:19;;;;;;;3.80;2.90;;;10.60;99.90;;;;;;5075239;28;20025;-77
2021/01/31 05:12:06;;;;;;;1.10;0.93;;;10.50;99.90;;;;;;5081834;28;20020;-77
2021/01/31 05:14:50;;;;;;;1.05;0.95;;;10.50;99.90;;;;;;5072647;28;20024;-77
2021/01/31 05:17:19;;;;;;;1.35;1.23;;;10.60;99.90;;;;;;5075648;28;20514;-77
2021/01/31 05:19:45;;;;;;;2.90;1.58;;;10.80;99.90;;;;;;5081325;28;20433;-77
2021/01/31 05:22:17;;;;;;;2.42;1.58;;;10.90;99.90;;;;;;5066185;28;20021;-77
2021/01/31 05:24:45;;;;;;;4.07;1.30;;;10.90;99.90;;;;;;5065650;28;20017;-76
2021/01/31 05:27:12;;;;;;;5.60;1.88;;;11.10;99.90;;;;;;5067298;28;20025;-76
2021/01/31 05:29:40;;;;;;;4.80;1.73;;;11.20;99.90;;;;;;5067249;28;20029;-80
2021/01/31 05:32:10;;;;;;;2.45;1.65;;;11.10;99.90;;;;;;5079843;28;20027;-77
2021/01/31 05:34:36;;;;;;;2.30;0.85;;;11.10;99.90;;;;;;5079474;28;20021;-77
2021/01/31 05:37:11;;;;;;;5.32;1.42;;;11.00;99.90;;;;;;5072930;28;20398;-80
2021/01/31 05:39:47;;;;;;;2.97;1.15;;;11.00;99.90;;;;;;5072844;28;20071;-77
2021/01/31 05:42:20;;;;;;;1.15;1.02;;;10.90;99.90;;;;;;5076976;28;20021;-77
2021/01/31 05:45:24;;;;;;;1.50;0.80;;;10.90;99.90;;;;;;5066824;28;20032;-77
2021/01/31 05:48:01;;;;;;;7.38;1.70;;;10.80;99.90;;;;;;5068949;28;20429;-77
2021/01/31 05:50:37;;;;;;;3.38;1.45;;;10.80;99.90;;;;;;5067039;28;20024;-76
2021/01/31 05:53:21;;;;;;;3.17;1.40;;;10.80;99.90;;;;;;5074461;28;20090;-77
2021/01/31 05:55:47;;;;;;;1.60;1.00;;;10.70;99.90;;;;;;5075789;28;20032;-76
2021/01/31 05:58:21;;;;;;;2.47;1.30;;;10.70;99.90;;;;;;5069614;28;20490;-78
2021/01/31 06:01:02;;;;;;;4.28;1.42;;;10.70;99.90;;;;;;5074783;28;20032;-77
2021/01/31 06:03:28;;;;;;;0.95;0.60;;;10.70;99.90;;;;;;5075923;28;20357;-77
2021/01/31 06:06:09;;;;;;;6.18;2.10;;;10.70;99.90;;;;;;5076973;28;20032;-77
2021/01/31 06:08:36;;;;;;;1.00;0.75;;;10.70;99.90;;;;;;5074385;28;20016;-77
2021/01/31 06:11:18;;;;;;;2.58;1.25;;;10.60;99.90;;;;;;5068813;28;20043;-78
2021/01/31 06:14:16;;;;;;;4.35;1.35;;;10.60;99.90;;;;;;5074725;28;20030;-77
2021/01/31 06:16:44;;;;;;;1.83;0.95;;;10.60;99.90;;;;;;5069074;28;20044;-77
2021/01/31 06:19:13;;;;;;;2.30;2.10;;;10.60;99.90;;;;;;5072703;28;20036;-77
2021/01/31 06:21:45;;;;;;;2.10;1.08;;;10.60;99.90;;;;;;5070704;28;20032;-77
2021/01/31 06:24:38;;;;;;;8.15;1.40;;;10.50;99.90;;;;;;5073899;28;20336;-77
2021/01/31 06:27:05;;;;;;;2.65;0.93;;;10.50;99.90;;;;;;5070393;28;20116;-77
2021/01/31 06:29:46;;;;;;;1.20;1.00;;;10.40;99.90;;;;;;5072728;28;20020;-77
2021/01/31 06:32:27;;;;;;;1.17;1.08;;;10.30;99.90;;;;;;5067241;28;20570;-77
2021/01/31 06:35:04;;;;;;;0.63;0.63;;;10.30;99.90;;;;;;5067500;28;20021;-77
2021/01/31 06:37:51;;;;;;;3.25;1.15;;;10.10;99.90;;;;;;5063362;28;20032;-77
2021/01/31 06:40:29;;;;;;;1.58;0.90;;;9.90;99.90;;;;;;5071447;28;20013;-77
2021/01/31 06:43:10;;;;;;;0.40;0.40;;;9.80;99.90;;;;;;5073826;28;20048;-77
2021/01/31 06:46:07;;;;;;;0.85;0.68;;;9.80;99.90;;;;;;5074044;28;20471;-77
2021/01/31 06:48:51;;;;;;;1.98;0.47;;;9.80;99.90;;;;;;5065445;28;20053;-77
2021/01/31 06:51:32;;;;;;;1.48;0.95;;;9.80;99.90;;;;;;5069109;28;20035;-77
2021/01/31 06:54:17;;;;;;;0.82;0.77;;;9.80;99.90;;;;;;5080218;28;20024;-77
2021/01/31 06:57:01;;;;;;;1.13;0.90;;;9.70;99.90;;;;;;5079047;28;20028;-77
2021/01/31 06:59:59;;;;;;;2.15;0.75;;;9.90;99.90;;;;;;5075378;28;20044;-77
2021/01/31 07:03:04;;;;;;;1.25;0.77;;;10.00;99.90;;;;;;5072436;28;20269;-77
2021/01/31 07:05:45;;;;;;;0.45;0.45;;;10.00;99.90;;;;;;5079692;28;20066;-77
2021/01/31 07:08:56;;;;;;;2.67;1.35;;;9.80;99.90;;;;;;5073379;28;20024;-77
2021/01/31 07:11:30;;;;;;;2.75;1.25;;;9.70;99.90;;;;;;5076126;28;20041;-77
2021/01/31 07:14:12;;;;;;;2.25;1.23;;;9.70;99.90;;;;;;5074630;28;20053;-80
2021/01/31 07:16:48;;;;;;;0.82;0.50;;;9.70;99.90;;;;;;5076267;28;20025;-77
2021/01/31 07:19:24;;;;;;;2.80;1.00;;;9.50;99.90;;;;;;5075362;28;20467;-77
2021/01/31 07:22:06;;;;;;;1.83;0.80;;;9.40;99.90;;;;;;5073695;28;20106;-77
2021/01/31 07:24:55;;;;;;;1.92;0.80;;;9.50;99.90;;;;;;5072906;28;20087;-77
2021/01/31 07:27:38;;;;;;;1.67;0.90;;;9.50;99.90;;;;;;5069681;28;20024;-77
2021/01/31 07:30:11;;;;;;;1.13;0.75;;;9.50;99.90;;;;;;5071645;28;20032;-79
2021/01/31 07:32:57;;;;;;;1.73;0.77;;;9.50;99.90;;;;;;5069913;28;20040;-77
2021/01/31 07:35:27;;;;;;;4.97;0.55;;;9.50;99.90;;;;;;5070634;28;20025;-77
2021/01/31 07:38:09;;;;;;;0.77;0.40;;;9.50;99.90;;;;;;5073671;28;20097;-77
2021/01/31 07:40:35;;;;;;;0.75;0.50;;;9.30;99.90;;;;;;5056435;28;20021;-77
2021/01/31 07:43:02;;;;;;;0.63;0.63;;;9.30;99.90;;;;;;5073238;28;20111;-77
2021/01/31 07:45:28;;;;;;;1.02;0.95;;;9.20;99.90;;;;;;5066106;28;20432;-71
2021/01/31 07:48:32;;;;;;;0.40;0.40;;;9.20;99.90;;;;;;5066257;28;20024;-71
2021/01/31 07:50:59;;;;;;;2.38;0.32;;;9.20;99.90;;;;;;5069479;28;20069;-70
2021/01/31 07:53:29;;;;;;;0.68;0.68;;;9.20;99.90;;;;;;5064759;28;20052;-71
2021/01/31 07:55:55;;;;;;;0.85;0.73;;;9.20;99.90;;;;;;5064321;28;20025;-74
2021/01/31 07:58:21;;;;;;;0.77;0.77;;;9.10;99.90;;;;;;5067284;28;20067;-74
2021/01/31 08:00:50;;;;;;;0.88;0.85;;;9.10;99.90;;;;;;5058852;28;20059;-74
2021/01/31 08:03:37;;;;;;;1.50;1.02;;;8.90;99.90;;;;;;5071363;28;20036;-73
2021/01/31 08:06:17;;;;;;;1.15;0.95;;;8.80;99.90;;;;;;5066974;28;20017;-74
2021/01/31 08:08:49;;;;;;;2.70;0.75;;;8.80;99.90;;;;;;5074245;28;20080;-74
2021/01/31 08:11:18;;;;;;;0.77;0.60;;;8.70;99.90;;;;;;5065278;28;20024;-74
2021/01/31 08:13:49;;;;;;;1.50;1.00;;;8.60;99.90;;;;;;5068667;28;20115;-75
2021/01/31 08:16:48;;;;;;;1.35;0.90;;;8.50;99.90;;;;;;5067179;28;20025;-73
2021/01/31 08:19:17;;;;;;;1.17;0.70;;;8.50;99.90;;;;;;5064747;28;20055;-74
2021/01/31 08:21:49;;;;;;;1.23;0.90;;;8.40;99.90;;;;;;5055294;28;20033;-73
2021/01/31 08:24:35;;;;;;;0.55;0.50;;;8.30;99.90;;;;;;5065482;28;20166;-74
2021/01/31 08:27:01;;;;;;;1.63;0.98;;;8.20;99.90;;;;;;5069724;28;20021;-74
2021/01/31 08:29:29;;;;;;;2.28;1.27;;;8.10;99.90;;;;;;5067196;28;20473;-74
2021/01/31 08:32:04;;;;;;;1.95;1.00;;;8.00;99.90;;;;;;5059342;28;20443;-74
2021/01/31 08:34:29;;;;;;;1.38;1.25;;;7.90;99.90;;;;;;5066707;28;20044;-74
2021/01/31 08:37:18;;;;;;;0.63;0.60;;;8.00;99.90;;;;;;5073041;28;20029;-73
2021/01/31 08:39:49;;;;;;;1.25;1.13;;;7.90;99.90;;;;;;5062921;28;20079;-73
2021/01/31 08:42:15;;;;;;;5.72;1.65;;;7.80;99.90;;;;;;5068474;28;20455;-73
2021/01/31 08:44:52;;;;;;;1.70;1.00;;;7.90;99.90;;;;;;5056632;28;20037;-73
2021/01/31 08:47:18;;;;;;;1.08;0.82;;;7.80;99.90;;;;;;5067548;28;20025;-73
2021/01/31 08:49:54;;;;;;;1.20;0.80;;;7.80;99.90;;;;;;5066157;28;20379;-74
2021/01/31 08:52:23;;;;;;;0.98;0.80;;;7.90;99.90;;;;;;5067308;28;20025;-73
2021/01/31 08:55:03;;;;;;;1.45;1.35;;;7.80;99.90;;;;;;5072076;28;20016;-73
2021/01/31 08:57:30;;;;;;;3.60;1.80;;;7.80;99.90;;;;;;5065410;28;20113;-75
2021/01/31 08:59:59;;;;;;;1.50;1.40;;;7.70;99.90;;;;;;5072064;28;20032;-73
2021/01/31 09:02:26;;;;;;;1.30;1.20;;;7.60;99.90;;;;;;5063904;28;20036;-74
2021/01/31 09:05:16;;;;;;;2.38;2.05;;;7.60;99.90;;;;;;5055481;28;20025;-74
2021/01/31 09:07:51;;;;;;;1.77;1.55;;;7.60;99.90;;;;;;5061302;28;20032;-74
2021/01/31 09:10:28;;;;;;;1.67;1.15;;;7.30;99.90;;;;;;5070653;28;20022;-73
2021/01/31 09:13:28;;;;;;;1.67;1.20;;;7.20;99.90;;;;;;5074489;28;20025;-74
2021/01/31 09:16:08;;;;;;;2.72;1.85;;;7.20;99.90;;;;;;5053619;28;20064;-74
2021/01/31 09:18:34;;;;;;;3.67;1.98;;;7.20;99.90;;;;;;5054037;28;20029;-74
2021/01/31 09:21:26;;;;;;;2.05;1.83;;;7.10;99.90;;;;;;5056997;28;20025;-74
2021/01/31 09:23:58;;;;;;;1.58;1.33;;;7.10;99.90;;;;;;5069022;28;20097;-75
2021/01/31 09:26:26;;;;;;;1.77;1.40;;;7.10;99.90;;;;;;5067894;28;20021;-73
2021/01/31 09:28:53;;;;;;;1.83;1.70;;;7.00;99.90;;;;;;5066248;28;20032;-75
2021/01/31 09:31:19;;;;;;;2.28;1.42;;;7.00;99.90;;;;;;5073748;28;20031;-74
2021/01/31 09:33:46;;;;;;;3.40;1.65;;;7.00;99.90;;;;;;5058531;28;20032;-75
2021/01/31 09:36:34;;;;;;;1.75;1.65;;;7.00;99.90;;;;;;5053115;28;20100;-74
2021/01/31 09:39:03;;;;;;;2.28;1.58;;;6.90;99.90;;;;;;5052856;28;20037;-74
2021/01/31 09:41:31;;;;;;;1.90;1.67;;;6.80;99.90;;;;;;5056898;28;20028;-75
2021/01/31 09:44:00;;;;;;;1.85;1.75;;;6.70;99.90;;;;;;5069897;28;20390;-74
2021/01/31 09:46:27;;;;;;;1.58;1.48;;;6.70;99.90;;;;;;5061402;28;20020;-74
2021/01/31 09:49:02;;;;;;;2.40;1.75;;;6.70;99.90;;;;;;5066945;28;20032;-75
2021/01/31 09:51:28;;;;;;;1.33;1.23;;;6.70;99.90;;;;;;5067657;28;20025;-75
2021/01/31 09:53:54;;;;;;;2.28;2.08;;;6.70;99.90;;;;;;5067243;28;20024;-74
2021/01/31 09:56:39;;;;;;;3.00;2.03;;;6.70;99.90;;;;;;5056722;28;20017;-74
2021/01/31 09:59:30;;;;;;;3.53;2.10;;;6.70;99.90;;;;;;5070985;28;20389;-74
2021/01/31 10:02:21;;;;;;;2.28;2.08;;;6.60;99.90;;;;;;5069833;28;20574;-74
2021/01/31 10:04:56;;;;;;;2.10;1.63;;;6.60;99.90;;;;;;5072574;28;20459;-74
2021/01/31 10:07:36;;;;;;;1.70;1.60;;;6.60;99.90;;;;;;5074203;28;20070;-75
2021/01/31 10:10:39;;;;;;;2.22;2.03;;;6.60;99.90;;;;;;5079206;28;20019;-74
2021/01/31 10:13:20;;;;;;;;;;;6.60;99.90;;;;;;5081713;28;20107;-73
2021/01/31 10:16:01;;;;;;;3.20;2.28;;;6.60;99.90;;;;;;5081787;28;19905;-74
2021/01/31 10:18:28;;;;;;;2.78;2.33;;;6.70;99.90;;;;;;5076739;28;20033;-74
2021/01/31 10:21:21;;;;;;;2.50;2.22;;;6.70;99.90;;;;;;5074692;28;20546;-72
2021/01/31 10:23:49;;;;;;;4.75;3.25;;;6.70;99.90;;;;;;5065394;28;20092;-74
2021/01/31 10:26:21;;;;;;;3.40;3.08;;;6.80;99.90;;;;;;5071360;28;20025;-72
2021/01/31 10:29:05;;;;;;;2.42;2.22;;;6.80;99.90;;;;;;5073872;28;20487;-73
2021/01/31 10:31:40;;;;;;;5.30;3.22;;;6.80;99.90;;;;;;5066428;28;20025;-74
2021/01/31 10:34:11;;;;;;;2.65;2.22;;;6.80;99.90;;;;;;5069722;28;20046;-74
2021/01/31 10:36:42;;;;;;;2.75;2.03;;;6.70;99.90;;;;;;5071785;28;20029;-73
2021/01/31 10:39:14;;;;;;;2.80;2.35;;;6.60;99.90;;;;;;5060483;28;20055;-74
2021/01/31 10:41:42;;;;;;;5.38;2.92;;;6.60;99.90;;;;;;5068665;28;20165;-73
2021/01/31 10:44:20;;;;;;;1.95;1.85;;;6.60;99.90;;;;;;5077265;28;20031;-74
2021/01/31 10:46:45;;;;;;;2.75;2.53;;;6.50;99.90;;;;;;5084949;28;20486;-73
2021/01/31 10:49:11;;;;;;;3.85;3.45;;;6.50;99.90;;;;;;5069786;28;20033;-73
2021/01/31 10:51:38;;;;;;;3.30;2.28;;;6.50;99.90;;;;;;5076229;28;20025;-75
2021/01/31 10:54:04;;;;;;;3.25;2.85;;;6.50;99.90;;;;;;5070110;28;20029;-73
2021/01/31 10:56:30;;;;;;;2.30;2.10;;;6.50;99.90;;;;;;5065935;28;20025;-72
2021/01/31 10:58:56;;;;;;;2.47;2.28;;;6.50;99.90;;;;;;5072721;28;20028;-74
2021/01/31 11:01:23;;;;;;;4.25;3.00;;;6.50;99.90;;;;;;5073393;28;20024;-74
2021/01/31 11:03:50;;;;;;;3.03;2.35;;;6.50;99.90;;;;;;5057593;28;20028;-74
2021/01/31 11:06:17;;;;;;;2.92;2.70;;;6.60;99.90;;;;;;5052190;28;20116;-73
2021/01/31 11:08:43;;;;;;;2.45;2.25;;;6.70;99.90;;;;;;5055547;28;20022;-73
2021/01/31 11:11:09;;;;;;;5.05;2.83;;;6.60;99.90;;;;;;5051467;28;20021;-74
2021/01/31 11:13:35;;;;;;;4.00;3.33;;;6.60;99.90;;;;;;5052850;28;20043;-74
2021/01/31 11:16:03;;;;;;;3.45;3.15;;;6.70;99.90;;;;;;5067482;28;20039;-74
2021/01/31 11:18:29;;;;;;;3.05;2.55;;;6.70;99.90;;;;;;5071110;28;20037;-73
2021/01/31 11:20:55;;;;;;;2.00;1.90;;;6.70;99.90;;;;;;5073216;28;20024;-74
2021/01/31 11:23:22;;;;;;;4.82;3.42;;;6.70;99.90;;;;;;5075010;28;20028;-74
2021/01/31 11:25:48;;;;;;;3.53;2.63;;;6.70;99.90;;;;;;5075760;28;20043;-73
2021/01/31 11:28:14;;;;;;;3.63;3.00;;;6.70;99.90;;;;;;5072613;28;20124;-73
2021/01/31 11:30:40;;;;;;;3.03;2.67;;;6.60;99.90;;;;;;5063815;28;20112;-74
2021/01/31 11:33:06;;;;;;;3.22;2.92;;;6.70;99.90;;;;;;5070074;28;20090;-73
2021/01/31 11:35:32;;;;;;;4.78;3.70;;;6.70;99.90;;;;;;5075408;28;20028;-73
2021/01/31 11:37:58;;;;;;;4.07;2.92;;;6.70;99.90;;;;;;5077200;28;20052;-73
2021/01/31 11:40:25;;;;;;;3.20;2.92;;;6.70;99.90;;;;;;5075424;28;20036;-73
2021/01/31 11:42:52;;;;;;;4.70;3.63;;;6.70;99.90;;;;;;5076788;28;20039;-74
2021/01/31 11:45:20;;;;;;;2.90;2.60;;;6.70;99.90;;;;;;5075210;28;20016;-74
2021/01/31 11:47:46;;;;;;;5.95;3.90;;;6.70;99.90;;;;;;5068955;28;20020;-73
2021/01/31 11:50:14;;;;;;;3.13;2.83;;;6.70;99.90;;;;;;5072990;28;20464;-73
2021/01/31 11:52:39;;;;;;;2.85;2.58;;;6.70;99.90;;;;;;5071485;28;20058;-74
2021/01/31 11:55:07;;;;;;;4.20;3.10;;;6.60;99.90;;;;;;5070715;28;20028;-74
2021/01/31 11:57:35;;;;;;;3.60;3.30;;;6.60;99.90;;;;;;5069384;28;20025;-73
2021/01/31 12:00:01;;;;;;;3.58;3.03;;;6.60;99.90;;;;;;5070566;28;20032;-73
2021/01/31 12:02:27;;;;;;;4.13;3.20;;;6.60;99.90;;;;;;5061901;28;20039;-72
2021/01/31 12:04:53;;;;;;;3.38;2.72;;;6.60;99.90;;;;;;5060098;28;20021;-73
2021/01/31 12:07:19;;;;;;;5.20;3.67;;;6.60;99.90;;;;;;5070351;28;20406;-73
2021/01/31 12:09:45;;;;;;;3.22;2.92;;;6.50;99.90;;;;;;5066840;28;20460;-73
2021/01/31 12:12:11;;;;;;;3.20;2.72;;;6.60;99.90;;;;;;5062043;28;20017;-72
2021/01/31 12:14:37;;;;;;;4.03;2.92;;;6.50;99.90;;;;;;5072811;28;20057;-72
2021/01/31 12:17:03;;;;;;;3.75;2.67;;;6.60;99.90;;;;;;5065542;28;20017;-72
2021/01/31 12:19:29;;;;;;;3.30;2.33;;;6.60;99.90;;;;;;5070698;28;20048;-72
2021/01/31 12:21:55;;;;;;;4.13;3.30;;;6.60;99.90;;;;;;5065500;28;20033;-72
2021/01/31 12:24:21;;;;;;;3.50;3.20;;;6.60;99.90;;;;;;5059702;28;20034;-72
2021/01/31 12:26:50;;;;;;;3.30;2.50;;;6.50;99.90;;;;;;5062110;28;20025;-74
2021/01/31 12:29:16;;;;;;;4.50;3.92;;;6.50;99.90;;;;;;5066958;28;20036;-73
2021/01/31 12:31:42;;;;;;;2.92;2.55;;;6.50;99.90;;;;;;5058166;28;20025;-73
2021/01/31 12:34:07;;;;;;;4.10;3.22;;;6.50;99.90;;;;;;5060541;28;20082;-73
2021/01/31 12:36:33;;;;;;;3.80;3.50;;;6.50;99.90;;;;;;5065425;28;20048;-73
2021/01/31 12:38:59;;;;;;;3.53;3.20;;;6.50;99.90;;;;;;5066987;28;20079;-73
2021/01/31 12:41:25;;;;;;;3.08;2.80;;;6.50;99.90;;;;;;5074346;28;20028;-73
2021/01/31 12:43:51;;;;;;;5.60;3.58;;;6.50;99.90;;;;;;5063042;28;20040;-73
2021/01/31 12:46:17;;;;;;;3.75;3.28;;;6.50;99.90;;;;;;5066164;28;20046;-73
2021/01/31 12:48:43;;;;;;;3.65;3.00;;;6.50;99.90;;;;;;5064429;28;20495;-73
2021/01/31 12:51:09;;;;;;;9.85;4.75;;;6.50;99.90;;;;;;5056656;28;20060;-73
2021/01/31 12:53:35;;;;;;;2.85;2.65;;;6.50;99.90;;;;;;5072402;28;20025;-73
2021/01/31 12:56:00;;;;;;;3.90;3.28;;;6.40;99.90;;;;;;5062990;28;20035;-73
2021/01/31 12:58:26;;;;;;;3.90;3.22;;;6.30;99.90;;;;;;5067911;28;20020;-73
2021/01/31 13:00:52;;;;;;;3.42;2.78;;;6.40;99.90;;;;;;5064192;28;20036;-74
2021/01/31 13:03:18;;;;;;;3.60;3.30;;;6.40;99.90;;;;;;5067087;28;20031;-74
2021/01/31 13:05:45;;;;;;;4.50;3.28;;;6.40;99.90;;;;;;5068182;28;20024;-74
2021/01/31 13:08:11;;;;;;;3.70;2.80;;;6.40;99.90;;;;;;5068057;28;20556;-74
2021/01/31 13:10:36;;;;;;;2.80;2.60;;;6.40;99.90;;;;;;5064637;28;20025;-74
2021/01/31 13:13:02;;;;;;;8.15;3.90;;;6.40;99.90;;;;;;5066755;28;20033;-74
2021/01/31 13:15:28;;;;;;;4.68;3.63;;;6.30;99.90;;;;;;5071015;28;20506;-74
2021/01/31 13:17:56;;;;;;;3.85;2.85;;;6.40;99.90;;;;;;5074737;28;20043;-74
2021/01/31 13:20:23;;;;;;;3.67;2.92;;;6.40;99.90;;;;;;5075525;28;20025;-74